Time;durP1;ratioP1;P1;durP2;ratioP2;P2;SDS_P1;SDS_P2;PMS_P1;PMS_P2;Temp;Humidity;BMP_temperature;BMP_pressure;BME280_temperature;BME280_humidity;BME280_pressure;Samples;Min_cycle;Max_cycle;Signal;HPM_P1;HPM_P2
2022/07/05 00:01:52;;;;;;;2.08;1.65;;;;;;;11.92;52.03;101976.22;4993004;28;20373;-78
2022/07/05 00:04:17;;;;;;;1.77;1.13;;;;;;;11.73;52.08;101976.72;4998505;28;20475;-77
2022/07/05 00:09:27;;;;;;;1.60;1.23;;;;;;;11.72;52.10;101968.91;5011583;28;20121;-78
2022/07/05 00:11:52;;;;;;;1.83;0.93;;;;;;;11.63;52.51;101975.25;4974711;28;20122;-78
2022/07/05 00:14:18;;;;;;;1.50;1.13;;;;;;;11.58;52.76;101977.13;4995132;28;20047;-78
2022/07/05 00:16:43;;;;;;;3.60;1.20;;;;;;;11.62;52.33;101979.63;4991460;28;20088;-77
2022/07/05 00:19:08;;;;;;;2.45;1.55;;;;;;;11.63;52.34;101980.47;5010001;28;20042;-77
2022/07/05 00:21:34;;;;;;;2.60;1.65;;;;;;;11.56;52.40;101971.06;4996370;28;20052;-76
2022/07/05 00:24:00;;;;;;;4.60;1.70;;;;;;;11.49;53.08;101980.00;4992160;28;20044;-78
2022/07/05 00:26:25;;;;;;;4.70;1.23;;;;;;;11.63;52.34;101977.84;5000674;28;20048;-75
2022/07/05 00:28:50;;;;;;;2.70;1.75;;;;;;;11.57;52.59;101975.41;4992655;28;20041;-77
2022/07/05 00:31:16;;;;;;;3.17;2.05;;;;;;;11.55;52.67;101974.56;4998171;28;20084;-77
2022/07/05 00:33:41;;;;;;;2.35;1.55;;;;;;;11.31;53.21;101970.84;4999977;28;20042;-77
2022/07/05 00:36:07;;;;;;;2.08;1.40;;;;;;;11.39;52.88;101981.97;5000544;28;20045;-76
2022/07/05 00:38:33;;;;;;;1.98;1.75;;;;;;;11.32;53.03;101981.28;4999053;28;20408;-77
2022/07/05 00:40:58;;;;;;;1.98;1.55;;;;;;;11.25;53.38;101974.47;4985495;28;20033;-77
2022/07/05 00:43:24;;;;;;;4.97;1.85;;;;;;;11.29;53.20;101985.75;4998552;28;20125;-77
2022/07/05 00:45:49;;;;;;;3.50;1.50;;;;;;;11.31;53.11;101976.94;4996921;28;20544;-76
2022/07/05 00:48:15;;;;;;;3.30;1.98;;;;;;;11.22;53.00;101982.41;4994284;28;20040;-77
2022/07/05 00:50:42;;;;;;;4.22;1.60;;;;;;;11.24;53.08;101977.97;4977313;28;20058;-78
2022/07/05 00:53:07;;;;;;;4.28;1.60;;;;;;;11.18;53.20;101972.94;4995318;28;20061;-77
2022/07/05 00:55:34;;;;;;;2.65;1.63;;;;;;;11.12;53.35;101975.69;4993013;28;20560;-78
2022/07/05 00:58:00;;;;;;;5.80;1.60;;;;;;;11.30;53.61;101972.59;4992254;28;20459;-78
2022/07/05 01:00:25;;;;;;;3.28;1.30;;;;;;;11.45;53.45;101974.81;4995373;28;20034;-78
2022/07/05 01:02:51;;;;;;;2.92;1.77;;;;;;;11.60;52.80;101975.34;4991610;28;20038;-77
2022/07/05 01:05:18;;;;;;;3.08;2.17;;;;;;;11.73;52.34;101975.84;4996096;28;20061;-78
2022/07/05 01:07:44;;;;;;;2.22;1.42;;;;;;;11.83;52.42;101978.19;4994769;28;20572;-78
2022/07/05 01:10:10;;;;;;;5.03;1.88;;;;;;;11.65;52.47;101979.53;4994029;28;20128;-77
2022/07/05 01:12:39;;;;;;;2.00;1.77;;;;;;;11.47;53.10;101980.03;5008082;28;20042;-81
2022/07/05 01:15:05;;;;;;;2.53;2.00;;;;;;;11.71;52.60;101985.50;4999517;28;20038;-80
2022/07/05 01:17:32;;;;;;;2.33;1.52;;;;;;;11.75;52.60;101984.50;5000628;28;20037;-79
2022/07/05 01:19:58;;;;;;;4.40;2.05;;;;;;;11.58;52.55;101982.38;4999276;28;20038;-77
2022/07/05 01:22:26;;;;;;;3.92;1.25;;;;;;;11.85;52.00;101979.03;4997836;28;20042;-79
2022/07/05 01:24:52;;;;;;;2.05;1.08;;;;;;;11.97;51.91;101985.66;4998999;28;20096;-77
2022/07/05 01:27:19;;;;;;;2.65;1.63;;;;;;;12.04;51.32;101981.13;4996594;28;20049;-79
2022/07/05 01:29:45;;;;;;;3.53;1.42;;;;;;;12.07;51.56;101981.03;4994451;28;20289;-78
2022/07/05 01:32:12;;;;;;;3.78;1.75;;;;;;;12.08;51.02;101978.34;5009487;28;20891;-75
2022/07/05 01:34:39;;;;;;;2.00;1.00;;;;;;;12.12;51.10;101981.75;4997217;28;20600;-78
2022/07/05 01:37:06;;;;;;;2.35;0.80;;;;;;;12.27;50.70;101973.44;4991633;28;20053;-77
2022/07/05 01:39:31;;;;;;;3.22;0.68;;;;;;;12.23;50.76;101971.81;4998005;28;20034;-78
2022/07/05 01:41:57;;;;;;;4.70;2.08;;;;;;;12.12;50.73;101979.13;4992644;28;20041;-77
2022/07/05 01:44:22;;;;;;;2.13;1.13;;;;;;;12.15;50.67;101973.78;4992883;28;20033;-77
2022/07/05 01:46:53;;;;;;;2.45;0.77;;;;;;;12.20;50.68;101963.19;4988886;28;20384;-77
2022/07/05 01:49:21;;;;;;;3.65;1.23;;;;;;;12.12;50.69;101966.03;4979665;28;20396;-78
2022/07/05 01:52:01;;;;;;;2.75;1.38;;;;;;;12.06;50.76;101959.19;4990623;28;20034;-77
2022/07/05 01:54:28;;;;;;;1.38;0.80;;;;;;;11.99;51.05;101967.28;4976758;28;20025;-77
2022/07/05 01:56:54;;;;;;;2.50;0.80;;;;;;;12.01;50.80;101966.34;4992491;28;20058;-78
2022/07/05 01:59:19;;;;;;;6.10;1.27;;;;;;;11.66;51.81;101964.66;4995573;28;20048;-76
2022/07/05 02:01:45;;;;;;;2.05;0.60;;;;;;;11.54;51.93;101962.41;4978015;28;20014;-76
2022/07/05 02:04:11;;;;;;;2.97;0.93;;;;;;;11.60;51.99;101957.00;5011066;28;20025;-76
2022/07/05 02:06:37;;;;;;;3.22;0.90;;;;;;;11.59;51.61;101948.25;4999244;28;20026;-75
2022/07/05 02:09:06;;;;;;;5.75;1.27;;;;;;;11.78;51.22;101947.81;4978135;28;20049;-78
2022/07/05 02:11:33;;;;;;;2.50;0.77;;;;;;;11.77;51.31;101946.94;5018516;28;20040;-78
2022/07/05 02:13:58;;;;;;;2.30;0.73;;;;;;;11.89;51.01;101945.75;5011114;28;20042;-77
2022/07/05 02:16:28;;;;;;;3.60;0.57;;;;;;;11.92;50.63;101944.78;4985317;28;20036;-78
2022/07/05 02:18:55;;;;;;;3.08;0.70;;;;;;;11.72;51.20;101954.03;4993600;28;20079;-78
2022/07/05 02:21:21;;;;;;;3.10;1.08;;;;;;;11.62;51.18;101958.69;4999069;28;20045;-77
2022/07/05 02:23:49;;;;;;;2.70;1.10;;;;;;;11.66;51.53;101946.34;4994897;28;20053;-77
2022/07/05 02:26:15;;;;;;;3.83;1.23;;;;;;;11.60;51.66;101943.91;5000719;28;20037;-78
2022/07/05 02:28:42;;;;;;;3.60;1.20;;;;;;;11.60;51.25;101951.78;4997960;28;20030;-78
2022/07/05 02:31:09;;;;;;;1.65;0.60;;;;;;;11.81;50.93;101958.19;4998102;28;20034;-78
2022/07/05 02:33:35;;;;;;;3.05;0.70;;;;;;;11.70;50.68;101955.84;4997594;28;20029;-76
2022/07/05 02:36:12;;;;;;;2.90;1.10;;;;;;;11.68;50.71;101952.41;5005436;28;20038;-78
2022/07/05 02:38:39;;;;;;;5.60;0.73;;;;;;;12.00;50.50;101956.78;5001398;28;20050;-79
2022/07/05 02:41:12;;;;;;;5.22;1.50;;;;;;;12.16;49.78;101958.97;4986314;28;20169;-77
2022/07/05 02:43:41;;;;;;;3.15;0.77;;;;;;;12.06;50.30;101953.09;4983503;28;20041;-76
2022/07/05 02:46:09;;;;;;;4.53;0.90;;;;;;;12.09;49.72;101955.66;5000978;28;20037;-79
2022/07/05 02:48:36;;;;;;;3.72;0.70;;;;;;;11.96;50.19;101959.53;4996373;28;20041;-75
2022/07/05 02:51:04;;;;;;;2.13;0.82;;;;;;;12.13;49.40;101959.03;4995867;28;20041;-77
2022/07/05 02:53:30;;;;;;;2.65;0.80;;;;;;;12.22;49.74;101962.25;4995805;28;20599;-76
2022/07/05 02:55:57;;;;;;;6.10;1.55;;;;;;;12.22;49.55;101964.88;5008561;28;20094;-75
2022/07/05 02:58:22;;;;;;;3.03;0.70;;;;;;;12.31;49.46;101963.72;4997005;28;20049;-75
2022/07/05 03:00:51;;;;;;;4.97;0.63;;;;;;;12.02;49.53;101962.84;4993110;28;20034;-75
2022/07/05 03:03:19;;;;;;;2.65;0.63;;;;;;;12.04;49.77;101968.00;4995739;28;20180;-77
2022/07/05 03:05:44;;;;;;;3.30;0.70;;;;;;;12.03;49.22;101974.16;4995539;28;20974;-76
2022/07/05 03:08:10;;;;;;;3.50;0.70;;;;;;;11.92;49.98;101971.84;4981107;28;20038;-77
2022/07/05 03:10:38;;;;;;;7.05;1.02;;;;;;;11.61;50.60;101967.41;4996629;28;20057;-77
2022/07/05 03:13:05;;;;;;;6.55;1.70;;;;;;;11.72;50.36;101966.28;4998089;28;20037;-77
2022/07/05 03:15:30;;;;;;;4.32;0.98;;;;;;;11.72;50.15;101974.97;4994546;28;20447;-77
2022/07/05 03:17:57;;;;;;;3.35;1.23;;;;;;;11.63;50.26;101968.25;4993857;28;20042;-78
2022/07/05 03:20:24;;;;;;;1.83;0.77;;;;;;;11.68;50.27;101971.56;4996296;28;20037;-78
2022/07/05 03:22:51;;;;;;;2.53;0.52;;;;;;;11.88;49.94;101975.44;4998544;28;20053;-77
2022/07/05 03:25:20;;;;;;;1.60;0.70;;;;;;;11.81;49.64;101977.38;5012301;28;20030;-75
2022/07/05 03:27:47;;;;;;;1.85;0.60;;;;;;;11.70;50.18;101984.63;4984720;28;20081;-76
2022/07/05 03:30:13;;;;;;;4.43;1.40;;;;;;;11.38;50.66;101972.41;4996558;28;20823;-77
2022/07/05 03:32:40;;;;;;;2.10;0.70;;;;;;;11.55;50.26;101983.28;4993545;28;20416;-76
2022/07/05 03:35:07;;;;;;;1.77;0.88;;;;;;;11.53;50.35;101979.00;4995731;28;20030;-77
2022/07/05 03:37:33;;;;;;;1.58;0.70;;;;;;;10.82;52.04;101971.16;4994864;28;20153;-75
2022/07/05 03:39:59;;;;;;;1.42;0.90;;;;;;;11.28;51.04;101971.78;4979457;28;20030;-77
2022/07/05 03:42:24;;;;;;;2.75;1.20;;;;;;;11.38;50.68;101970.66;4994683;28;20044;-77
2022/07/05 03:44:50;;;;;;;4.30;0.65;;;;;;;11.55;50.67;101977.19;4994359;28;20030;-77
2022/07/05 03:47:15;;;;;;;0.93;0.55;;;;;;;11.56;50.77;101976.31;4995237;28;20123;-77
2022/07/05 03:49:43;;;;;;;1.75;0.90;;;;;;;11.71;50.32;101978.53;4995115;28;20033;-77
2022/07/05 03:52:09;;;;;;;3.60;0.70;;;;;;;11.75;50.05;101974.88;4992017;28;21385;-77
2022/07/05 03:54:34;;;;;;;4.20;0.80;;;;;;;11.80;50.12;101980.06;4995467;28;20896;-77
2022/07/05 03:57:03;;;;;;;2.70;0.40;;;;;;;12.26;49.21;101982.19;4992892;28;20041;-77
2022/07/05 03:59:28;;;;;;;2.85;0.85;;;;;;;12.42;48.74;101980.00;4996951;28;20768;-76
2022/07/05 04:01:54;;;;;;;1.80;1.17;;;;;;;12.44;48.01;101985.19;4993338;28;20242;-76
2022/07/05 04:04:20;;;;;;;4.05;0.82;;;;;;;12.35;48.95;101990.72;4993719;28;20041;-77
2022/07/05 04:06:46;;;;;;;1.75;0.80;;;;;;;12.49;48.91;101983.28;4995483;28;20037;-77
2022/07/05 04:09:13;;;;;;;5.55;0.77;;;;;;;12.76;48.19;101991.22;4995215;28;20090;-75
2022/07/05 04:11:39;;;;;;;1.83;0.88;;;;;;;12.92;47.81;101997.72;5001482;28;20034;-77
2022/07/05 04:14:05;;;;;;;5.80;1.15;;;;;;;12.47;49.11;102006.09;4991603;28;20133;-78
2022/07/05 04:16:30;;;;;;;1.77;0.70;;;;;;;12.62;48.72;102000.34;5012342;28;20401;-77
2022/07/05 04:18:58;;;;;;;2.22;0.55;;;;;;;12.53;48.83;102008.50;4997413;28;20053;-79
2022/07/05 04:21:25;;;;;;;2.05;0.85;;;;;;;12.45;48.94;102006.13;5000004;28;20034;-79
2022/07/05 04:23:51;;;;;;;1.77;0.80;;;;;;;12.85;48.56;101996.22;4979518;28;20069;-80
2022/07/05 04:26:18;;;;;;;1.20;0.50;;;;;;;12.98;47.64;102001.91;4997775;28;20056;-78
2022/07/05 04:28:45;;;;;;;2.35;0.55;;;;;;;12.53;48.69;102000.63;4996519;28;20034;-76
2022/07/05 04:31:14;;;;;;;2.20;0.60;;;;;;;13.12;48.27;102002.34;5010021;28;20026;-78
2022/07/05 04:33:43;;;;;;;1.52;0.85;;;;;;;12.73;49.45;102001.81;4994560;28;20049;-79
2022/07/05 04:36:11;;;;;;;5.53;0.70;;;;;;;12.79;49.17;102004.28;5012114;28;20036;-79
2022/07/05 04:38:37;;;;;;;2.97;1.42;;;;;;;12.49;49.59;102005.13;4996206;28;20037;-78
2022/07/05 04:41:03;;;;;;;1.80;0.65;;;;;;;12.90;48.60;102007.41;4994963;28;20476;-75
2022/07/05 04:43:33;;;;;;;4.78;1.10;;;;;;;13.05;48.46;102012.16;5012410;28;20042;-78
2022/07/05 04:46:00;;;;;;;3.47;0.70;;;;;;;12.89;48.91;102005.69;4992978;28;20034;-79
2022/07/05 04:48:26;;;;;;;1.90;0.90;;;;;;;12.86;48.49;102004.00;4994576;28;20044;-78
2022/07/05 04:50:53;;;;;;;2.70;0.68;;;;;;;12.93;48.90;102004.69;4995137;28;20196;-78
2022/07/05 04:53:18;;;;;;;1.70;0.75;;;;;;;13.01;48.88;102002.66;4992733;28;20760;-77
2022/07/05 04:55:44;;;;;;;4.90;0.98;;;;;;;13.28;48.23;102011.41;4990531;28;20342;-77
2022/07/05 04:58:10;;;;;;;3.20;0.65;;;;;;;13.47;47.78;102016.91;5006312;28;20451;-79
2022/07/05 05:00:36;;;;;;;2.50;0.88;;;;;;;13.56;47.45;102009.59;4993309;28;20666;-78
2022/07/05 05:03:01;;;;;;;1.50;0.63;;;;;;;13.13;48.78;102005.81;4992083;28;20046;-75
2022/07/05 05:05:27;;;;;;;3.15;1.00;;;;;;;13.17;48.11;102007.44;4992238;28;20538;-78
2022/07/05 05:07:52;;;;;;;2.10;0.88;;;;;;;13.36;48.46;102011.16;4978815;28;20064;-78
2022/07/05 05:10:17;;;;;;;2.47;0.93;;;;;;;13.20;47.90;102016.03;4978173;28;21027;-78
2022/07/05 05:12:43;;;;;;;2.45;1.13;;;;;;;12.92;49.37;102013.47;4992970;28;20916;-77
2022/07/05 05:15:09;;;;;;;3.75;0.82;;;;;;;13.78;47.68;102010.59;4999777;28;20037;-77
2022/07/05 05:17:41;;;;;;;3.20;1.10;;;;;;;14.11;46.45;102012.94;4995660;28;20042;-76
2022/07/05 05:20:10;;;;;;;;;;;;;;;13.49;47.46;102020.31;4997299;28;20088;-77
2022/07/05 05:22:35;;;;;;;8.07;1.55;;;;;;;13.73;47.72;102020.41;4992600;28;19948;-76
2022/07/05 05:25:01;;;;;;;2.17;0.55;;;;;;;14.13;47.11;102018.97;5001115;28;20656;-76
2022/07/05 05:27:26;;;;;;;6.55;0.93;;;;;;;14.24;46.19;102014.19;5001370;28;20460;-77
2022/07/05 05:29:52;;;;;;;3.25;1.33;;;;;;;13.94;46.92;102017.03;5011974;28;20148;-78
2022/07/05 05:32:17;;;;;;;3.08;0.93;;;;;;;13.95;47.13;102017.88;4997265;28;20050;-77
2022/07/05 05:34:43;;;;;;;2.67;1.45;;;;;;;13.42;48.33;102013.56;4993729;28;20574;-76
2022/07/05 05:37:08;;;;;;;2.33;0.75;;;;;;;13.48;48.03;102018.59;4994211;28;20048;-77
2022/07/05 05:39:34;;;;;;;2.13;0.88;;;;;;;13.61;47.88;102008.56;5016219;28;20121;-77
2022/07/05 05:41:59;;;;;;;2.50;0.77;;;;;;;13.54;47.97;102014.94;4994397;28;20117;-78
2022/07/05 05:44:24;;;;;;;2.58;0.50;;;;;;;13.57;48.11;102008.75;4998035;28;20030;-77
2022/07/05 05:46:50;;;;;;;4.07;0.80;;;;;;;13.42;48.92;102018.81;4975703;28;20113;-78
2022/07/05 05:49:15;;;;;;;1.65;0.50;;;;;;;13.17;49.15;102024.03;4996839;28;20040;-77
2022/07/05 05:51:41;;;;;;;1.25;0.63;;;;;;;13.83;47.66;102023.56;4996444;28;20176;-78
2022/07/05 05:54:06;;;;;;;3.28;0.70;;;;;;;14.54;46.59;102027.09;4989569;28;20042;-78
2022/07/05 05:56:32;;;;;;;1.17;0.60;;;;;;;15.41;45.15;102027.16;5009790;28;20136;-78
2022/07/05 05:58:57;;;;;;;4.88;0.50;;;;;;;15.39;43.25;102024.59;4997661;28;20726;-77
2022/07/05 06:01:23;;;;;;;3.05;0.40;;;;;;;15.43;44.35;102025.34;4995159;28;20353;-79
2022/07/05 06:03:48;;;;;;;3.33;0.60;;;;;;;15.18;44.47;102035.06;4994465;28;20076;-79
2022/07/05 06:06:14;;;;;;;1.10;0.57;;;;;;;16.27;42.89;102037.47;4996336;28;20550;-77
2022/07/05 06:08:39;;;;;;;2.78;0.60;;;;;;;18.89;39.57;102025.84;4997715;28;20041;-78
2022/07/05 06:11:05;;;;;;;2.63;0.50;;;;;;;19.87;36.23;102029.81;5011898;28;20718;-79
2022/07/05 06:13:30;;;;;;;1.40;0.30;;;;;;;18.26;38.82;102037.28;4994047;28;20049;-77
2022/07/05 06:15:56;;;;;;;1.10;0.40;;;;;;;17.98;39.74;102035.25;5000852;28;20072;-78
2022/07/05 06:18:22;;;;;;;4.80;0.63;;;;;;;19.56;37.08;102038.78;4996939;28;20050;-78
2022/07/05 06:20:47;;;;;;;3.63;0.40;;;;;;;20.31;35.52;102038.66;4981608;28;20033;-77
2022/07/05 06:23:13;;;;;;;1.25;0.45;;;;;;;20.51;34.66;102042.69;4993354;28;20057;-79
2022/07/05 06:25:39;;;;;;;2.33;0.30;;;;;;;19.51;34.54;102040.84;4983210;28;20139;-77
2022/07/05 06:28:07;;;;;;;4.95;0.20;;;;;;;18.83;37.08;102036.78;4978887;28;20795;-78
2022/07/05 06:30:37;;;;;;;1.95;0.20;;;;;;;18.38;37.33;102045.50;5012288;28;20104;-78
2022/07/05 06:33:03;;;;;;;2.80;0.20;;;;;;;18.02;37.59;102043.88;4994283;28;20049;-78
2022/07/05 06:35:30;;;;;;;1.63;0.10;;;;;;;16.81;39.12;102043.75;4996077;28;20068;-77
2022/07/05 06:38:01;;;;;;;7.68;0.40;;;;;;;16.33;40.78;102050.38;4994832;28;20046;-76
2022/07/05 06:40:43;;;;;;;2.75;0.28;;;;;;;16.47;41.02;102055.03;4993719;28;20057;-78
2022/07/05 06:43:11;;;;;;;3.45;0.20;;;;;;;16.54;40.82;102051.16;4992801;28;20049;-78
2022/07/05 06:45:59;;;;;;;2.10;0.20;;;;;;;16.15;41.79;102059.09;4997509;28;20357;-76
2022/07/05 06:48:25;;;;;;;2.60;0.40;;;;;;;15.95;41.92;102057.31;5011303;28;20153;-75
2022/07/05 06:50:50;;;;;;;5.63;0.30;;;;;;;16.16;42.00;102050.28;5000145;28;20038;-75
2022/07/05 06:53:16;;;;;;;4.63;0.55;;;;;;;16.18;41.25;102054.56;4998647;28;20033;-75
2022/07/05 06:55:44;;;;;;;2.60;0.30;;;;;;;16.47;40.70;102062.94;4998158;28;20617;-76
2022/07/05 06:58:09;;;;;;;1.42;0.50;;;;;;;16.30;41.25;102061.06;4982659;28;21321;-73
2022/07/05 07:00:36;;;;;;;5.90;0.47;;;;;;;16.04;41.47;102050.81;5000624;28;20053;-77
2022/07/05 07:03:02;;;;;;;1.85;0.30;;;;;;;17.36;41.82;102055.19;4996673;28;20194;-76
2022/07/05 07:05:27;;;;;;;0.65;0.10;;;;;;;20.97;32.64;102053.00;5001509;28;20191;-76
2022/07/05 07:10:37;;;;;;;4.00;0.10;;;;;;;21.64;31.15;102044.13;5037980;28;20034;-76
2022/07/05 07:13:03;;;;;;;1.75;0.17;;;;;;;19.98;33.93;102050.38;5019314;28;20522;-76
2022/07/05 07:15:29;;;;;;;2.75;0.55;;;;;;;18.18;35.83;102055.31;5019165;28;20037;-75
2022/07/05 07:17:55;;;;;;;2.80;0.30;;;;;;;18.53;36.81;102070.28;5016288;28;20650;-75
2022/07/05 07:20:20;;;;;;;1.02;0.17;;;;;;;17.90;37.78;102060.41;5021632;28;20053;-75
2022/07/05 07:22:46;;;;;;;3.80;0.40;;;;;;;17.71;37.97;102063.13;5021280;28;20276;-77
2022/07/05 07:25:11;;;;;;;7.03;0.50;;;;;;;18.02;37.99;102060.59;5017315;28;20039;-78
2022/07/05 07:27:44;;;;;;;2.65;0.22;;;;;;;18.91;36.06;102062.88;5021236;28;20075;-76
2022/07/05 07:30:11;;;;;;;4.80;0.10;;;;;;;19.21;35.11;102054.97;5003051;28;20926;-77
2022/07/05 07:32:37;;;;;;;1.00;0.10;;;;;;;19.16;34.18;102053.50;5015343;28;20044;-77
2022/07/05 07:35:02;;;;;;;3.60;0.60;;;;;;;19.59;33.96;102061.59;5021444;28;20029;-76
2022/07/05 07:37:28;;;;;;;3.65;0.28;;;;;;;20.15;33.02;102067.94;5014800;28;20563;-76
2022/07/05 07:39:53;;;;;;;1.30;0.17;;;;;;;20.04;33.40;102073.91;5014060;28;20124;-75
2022/07/05 07:42:19;;;;;;;3.55;0.60;;;;;;;19.83;33.97;102070.75;5015822;28;20624;-76
2022/07/05 07:44:44;;;;;;;1.48;0.20;;;;;;;19.85;34.54;102082.13;5014900;28;20037;-75
2022/07/05 07:47:10;;;;;;;3.92;0.32;;;;;;;19.76;34.03;102073.88;5018304;28;20551;-75
2022/07/05 07:49:36;;;;;;;1.75;0.22;;;;;;;19.49;33.63;102069.25;5020629;28;20172;-77
2022/07/05 07:52:02;;;;;;;1.70;0.20;;;;;;;18.80;34.33;102068.72;5014574;28;20082;-77
2022/07/05 07:54:28;;;;;;;3.33;0.35;;;;;;;19.80;32.92;102075.41;5016542;28;20104;-76
2022/07/05 07:56:53;;;;;;;2.55;0.10;;;;;;;22.78;28.46;102072.44;5018221;28;20472;-76
2022/07/05 07:59:19;;;;;;;2.05;1.17;;;;;;;25.32;26.02;102068.53;5020070;28;20233;-77
2022/07/05 08:01:44;;;;;;;2.97;0.20;;;;;;;26.94;22.70;102059.72;5019422;28;20033;-79
2022/07/05 08:04:11;;;;;;;1.75;0.10;;;;;;;25.01;24.27;102068.44;5003284;28;20030;-77
2022/07/05 08:06:37;;;;;;;2.30;0.22;;;;;;;23.84;26.52;102076.91;5018116;28;20030;-78
2022/07/05 08:09:02;;;;;;;1.88;0.10;;;;;;;23.25;27.08;102074.31;5020921;28;20038;-78
2022/07/05 08:11:28;;;;;;;4.15;0.20;;;;;;;21.45;28.75;102084.41;5019763;28;20078;-77
2022/07/05 08:13:53;;;;;;;1.27;0.38;;;;;;;20.14;31.23;102076.81;5002111;28;20044;-78
2022/07/05 08:16:19;;;;;;;1.85;0.20;;;;;;;18.01;34.55;102074.75;5038335;28;20618;-76
2022/07/05 08:21:31;;;;;;;2.80;0.22;;;;;;;18.09;35.53;102081.44;5021853;28;20056;-77
2022/07/05 08:24:10;;;;;;;2.35;0.47;;;;;;;17.60;36.23;102085.72;4977785;28;20052;-76
2022/07/05 08:26:36;;;;;;;1.83;0.20;;;;;;;17.88;36.49;102083.44;5022537;28;20060;-77
2022/07/05 08:29:05;;;;;;;0.85;0.40;;;;;;;17.17;36.72;102090.44;5001724;28;20124;-77
2022/07/05 08:31:36;;;;;;;1.55;0.15;;;;;;;17.59;36.94;102083.97;5015457;28;20038;-77
2022/07/05 08:34:03;;;;;;;2.22;0.20;;;;;;;18.58;36.64;102090.25;5025827;28;20037;-76
2022/07/05 08:36:28;;;;;;;2.38;0.30;;;;;;;18.91;34.67;102075.25;5022556;28;20025;-77
2022/07/05 08:38:54;;;;;;;0.75;0.10;;;;;;;18.08;34.49;102079.75;5012137;28;20091;-77
2022/07/05 08:41:21;;;;;;;2.72;0.32;;;;;;;18.36;34.29;102085.28;5016705;28;20476;-77
2022/07/05 08:43:48;;;;;;;2.22;0.10;;;;;;;18.83;33.71;102075.66;5030700;28;20072;-78
2022/07/05 08:46:15;;;;;;;4.47;0.30;;;;;;;19.35;33.66;102079.81;5036146;28;20025;-78
2022/07/05 08:48:43;;;;;;;3.65;0.10;;;;;;;19.70;32.90;102081.25;5020896;28;20178;-80
2022/07/05 08:51:13;;;;;;;2.50;0.10;;;;;;;18.51;31.43;102078.28;5010008;28;20057;-78
2022/07/05 08:53:41;;;;;;;1.15;0.10;;;;;;;17.32;34.73;102090.63;5016684;28;20447;-76
2022/07/05 08:56:11;;;;;;;0.85;0.10;;;;;;;18.83;32.82;102081.81;5002131;28;20029;-77
2022/07/05 08:58:37;;;;;;;1.33;0.10;;;;;;;18.95;32.74;102082.94;5032002;28;20094;-77
2022/07/05 09:01:04;;;;;;;2.50;0.20;;;;;;;19.00;32.67;102088.84;5032259;28;20035;-77
2022/07/05 09:03:35;;;;;;;1.70;0.43;;;;;;;20.30;30.05;102093.53;5002840;28;20065;-77
2022/07/05 09:06:02;;;;;;;2.05;0.10;;;;;;;19.80;30.57;102092.16;5017848;28;20065;-77
2022/07/05 09:08:32;;;;;;;0.65;0.63;;;;;;;20.00;31.09;102092.75;5006273;28;20405;-77
2022/07/05 09:11:03;;;;;;;0.75;0.10;;;;;;;22.64;27.00;102090.34;5037439;28;20144;-76
2022/07/05 09:13:34;;;;;;;0.82;0.10;;;;;;;23.22;25.42;102080.75;5016271;28;20034;-80
2022/07/05 09:15:59;;;;;;;1.85;0.20;;;;;;;25.58;23.41;102086.91;5032192;28;20029;-77
2022/07/05 09:18:48;;;;;;;1.65;0.47;;;;;;;25.52;22.35;102085.59;5021079;28;20123;-77
2022/07/05 09:21:22;;;;;;;2.05;0.10;;;;;;;23.92;23.33;102071.00;5019747;28;20437;-79
2022/07/05 09:23:59;;;;;;;3.35;0.10;;;;;;;22.29;25.28;102081.28;5018050;28;20052;-78
2022/07/05 09:26:36;;;;;;;1.85;0.00;;;;;;;20.79;27.76;102091.38;4995623;28;20107;-76
2022/07/05 09:29:04;;;;;;;0.63;0.17;;;;;;;18.46;31.17;102090.94;5014951;28;20034;-76
2022/07/05 09:31:33;;;;;;;2.05;0.32;;;;;;;18.94;31.19;102098.91;5006316;28;20045;-77
2022/07/05 09:34:05;;;;;;;2.72;0.10;;;;;;;18.48;31.28;102097.00;5030456;28;20074;-76
2022/07/05 09:36:57;;;;;;;0.45;0.05;;;;;;;18.55;32.05;102105.47;5002742;28;20163;-76
2022/07/05 09:39:29;;;;;;;1.67;0.10;;;;;;;18.43;32.04;102107.84;5011509;28;20042;-75
2022/07/05 09:42:23;;;;;;;0.30;0.05;;;;;;;17.44;32.77;102105.84;4995338;28;20996;-77
2022/07/05 09:44:56;;;;;;;1.85;0.17;;;;;;;18.23;32.73;102105.41;5020018;28;20054;-77
2022/07/05 09:47:29;;;;;;;0.68;0.10;;;;;;;18.12;32.58;102099.78;5017595;28;20058;-76
2022/07/05 09:49:57;;;;;;;2.58;0.17;;;;;;;17.85;33.59;102105.59;5018874;28;20180;-76
2022/07/05 09:52:35;;;;;;;0.50;0.10;;;;;;;20.17;30.91;102100.50;5021089;28;20045;-77
2022/07/05 09:55:16;;;;;;;2.05;0.10;;;;;;;20.74;29.39;102104.97;4995329;28;20111;-81
2022/07/05 09:57:43;;;;;;;0.40;0.03;;;;;;;20.38;29.60;102109.00;5020277;28;20037;-76
2022/07/05 10:00:16;;;;;;;0.63;0.30;;;;;;;18.54;31.73;102119.63;5003375;28;20025;-75
2022/07/05 10:02:47;;;;;;;3.03;0.40;;;;;;;17.56;34.16;102131.72;4992092;28;20233;-75
2022/07/05 10:05:16;;;;;;;1.27;0.08;;;;;;;17.77;33.63;102128.94;5013142;28;20808;-77
2022/07/05 10:07:48;;;;;;;3.03;0.35;;;;;;;17.05;35.10;102130.66;5033710;28;20422;-76
2022/07/05 10:10:22;;;;;;;2.97;0.20;;;;;;;16.73;36.08;102125.09;5016190;28;20148;-75
2022/07/05 10:12:49;;;;;;;2.83;0.10;;;;;;;16.84;36.14;102135.16;5017485;28;20045;-80
2022/07/05 10:15:18;;;;;;;0.85;0.10;;;;;;;16.45;37.24;102135.19;5015866;28;20036;-76
2022/07/05 10:17:52;;;;;;;2.50;0.20;;;;;;;16.42;37.28;102137.03;5018943;28;20045;-76
2022/07/05 10:20:41;;;;;;;1.52;0.10;;;;;;;16.82;36.69;102132.59;5003539;28;20026;-77
2022/07/05 10:23:09;;;;;;;2.33;0.10;;;;;;;17.21;36.71;102142.19;5002244;28;20045;-77
2022/07/05 10:25:36;;;;;;;4.47;0.40;;;;;;;17.03;37.14;102140.44;5006332;28;20037;-77
2022/07/05 10:28:03;;;;;;;4.50;0.15;;;;;;;17.10;37.08;102133.94;5003937;28;20049;-78
2022/07/05 10:30:29;;;;;;;0.90;0.30;;;;;;;17.06;37.31;102128.88;5007572;28;20039;-77
2022/07/05 10:32:56;;;;;;;2.80;0.57;;;;;;;16.57;38.20;102138.09;5001249;28;20450;-77
2022/07/05 10:35:22;;;;;;;2.13;0.25;;;;;;;16.89;38.90;102146.38;5008068;28;20092;-76
2022/07/05 10:37:49;;;;;;;1.98;0.10;;;;;;;16.81;38.55;102149.34;4979238;28;20086;-77
2022/07/05 10:40:16;;;;;;;5.18;0.20;;;;;;;17.37;37.55;102150.22;5038027;28;20503;-78
2022/07/05 10:42:54;;;;;;;2.45;0.10;;;;;;;17.22;37.52;102150.97;5015120;28;20038;-77
2022/07/05 10:45:39;;;;;;;0.85;0.10;;;;;;;17.74;36.01;102142.28;5016683;28;20052;-78
2022/07/05 10:48:15;;;;;;;1.27;0.20;;;;;;;18.13;35.30;102149.13;5017477;28;20152;-78
2022/07/05 10:50:48;;;;;;;1.15;0.10;;;;;;;19.45;33.10;102134.00;5007435;28;20404;-78
2022/07/05 10:53:14;;;;;;;1.35;0.10;;;;;;;20.39;32.59;102139.91;5007211;28;20065;-77
2022/07/05 10:56:11;;;;;;;1.65;0.20;;;;;;;21.94;29.88;102135.16;4997901;28;20045;-80
2022/07/05 10:58:38;;;;;;;0.73;0.20;;;;;;;21.65;28.38;102133.63;5012154;28;20053;-77
2022/07/05 11:01:19;;;;;;;1.02;0.10;;;;;;;21.62;28.48;102134.66;4998425;28;20021;-77
2022/07/05 11:04:00;;;;;;;0.65;0.10;;;;;;;21.19;27.64;102137.50;5011949;28;20744;-78
2022/07/05 11:06:39;;;;;;;2.13;0.20;;;;;;;20.40;29.08;102133.66;5010934;28;20030;-78
2022/07/05 11:09:11;;;;;;;1.63;0.20;;;;;;;20.68;28.10;102132.75;5008458;28;20052;-78
2022/07/05 11:11:40;;;;;;;2.42;0.10;;;;;;;20.61;27.94;102133.25;5016725;28;20423;-77
2022/07/05 11:14:25;;;;;;;5.88;0.30;;;;;;;21.56;27.50;102135.09;5012486;28;20057;-78
2022/07/05 11:17:12;;;;;;;5.13;0.10;;;;;;;21.39;26.10;102120.22;5006753;28;20047;-78
2022/07/05 11:19:59;;;;;;;1.85;0.00;;;;;;;19.85;28.19;102121.91;4996860;28;20041;-78
2022/07/05 11:22:25;;;;;;;2.85;0.10;;;;;;;20.72;28.31;102120.16;5013245;28;20500;-79
2022/07/05 11:24:52;;;;;;;2.17;0.10;;;;;;;21.60;28.57;102118.00;5023649;28;20092;-78
2022/07/05 11:27:18;;;;;;;1.08;0.15;;;;;;;20.43;27.58;102114.03;5007331;28;20064;-76
2022/07/05 11:29:50;;;;;;;0.47;0.10;;;;;;;20.75;28.59;102117.28;4995950;28;20088;-78
2022/07/05 11:32:20;;;;;;;2.53;0.10;;;;;;;20.17;29.27;102115.59;5008464;28;20280;-79
2022/07/05 11:35:07;;;;;;;3.03;0.05;;;;;;;20.31;30.26;102108.53;5010320;28;20068;-77
2022/07/05 11:37:34;;;;;;;2.58;0.10;;;;;;;19.32;32.52;102123.22;5005173;28;20037;-79